sensor_id;sensor_type;location;lat;lon;timestamp;pressure;altitude;pressure_sealevel;temperature;humidity
9141;BME280;46330;50.822;7.126;2024-01-07T00:02:21;100795.72;;;2.16;100.00
9141;BME280;46330;50.822;7.126;2024-01-07T00:04:49;100800.00;;;2.14;100.00
9141;BME280;46330;50.822;7.126;2024-01-07T00:07:19;100811.16;;;2.15;100.00
9141;BME280;46330;50.822;7.126;2024-01-07T00:09:48;100808.66;;;2.20;100.00
9141;BME280;46330;50.822;7.126;2024-01-07T00:12:16;100813.84;;;2.21;100.00
9141;BME280;46330;50.822;7.126;2024-01-07T00:14:44;100812.13;;;2.22;100.00
9141;BME280;46330;50.822;7.126;2024-01-07T00:17:12;100814.72;;;2.22;100.00
9141;BME280;46330;50.822;7.126;2024-01-07T00:19:40;100811.25;;;2.21;100.00
9141;BME280;46330;50.822;7.126;2024-01-07T00:22:08;100814.69;;;2.20;100.00
9141;BME280;46330;50.822;7.126;2024-01-07T00:24:38;100818.16;;;2.21;100.00
9141;BME280;46330;50.822;7.126;2024-01-07T00:27:06;100820.78;;;2.24;100.00
9141;BME280;46330;50.822;7.126;2024-01-07T00:29:35;100821.56;;;2.21;100.00
9141;BME280;46330;50.822;7.126;2024-01-07T00:32:04;100821.66;;;2.26;100.00
9141;BME280;46330;50.822;7.126;2024-01-07T00:34:32;100821.63;;;2.23;100.00
9141;BME280;46330;50.822;7.126;2024-01-07T00:37:00;100821.72;;;2.29;100.00
9141;BME280;46330;50.822;7.126;2024-01-07T00:39:28;100821.66;;;2.26;100.00
9141;BME280;46330;50.822;7.126;2024-01-07T00:41:58;100830.28;;;2.26;100.00
9141;BME280;46330;50.822;7.126;2024-01-07T00:44:26;100821.66;;;2.26;100.00
9141;BME280;46330;50.822;7.126;2024-01-07T00:46:54;100828.53;;;2.25;100.00
9141;BME280;46330;50.822;7.126;2024-01-07T00:49:22;100826.88;;;2.29;100.00
9141;BME280;46330;50.822;7.126;2024-01-07T00:51:50;100824.34;;;2.30;100.00
9141;BME280;46330;50.822;7.126;2024-01-07T00:54:18;100815.53;;;2.17;100.00
9141;BME280;46330;50.822;7.126;2024-01-07T00:56:46;100834.53;;;2.23;100.00
9141;BME280;46330;50.822;7.126;2024-01-07T00:59:16;100825.03;;;2.20;100.00
9141;BME280;46330;50.822;7.126;2024-01-07T01:01:44;100830.19;;;2.22;100.00
9141;BME280;46330;50.822;7.126;2024-01-07T01:04:12;100834.56;;;2.24;100.00
9141;BME280;46330;50.822;7.126;2024-01-07T01:06:40;100840.66;;;2.29;100.00
9141;BME280;46330;50.822;7.126;2024-01-07T01:09:08;100832.91;;;2.29;100.00
9141;BME280;46330;50.822;7.126;2024-01-07T01:11:36;100830.25;;;2.25;100.00
9141;BME280;46330;50.822;7.126;2024-01-07T01:14:04;100836.38;;;2.31;100.00
9141;BME280;46330;50.822;7.126;2024-01-07T01:16:33;100849.22;;;2.28;100.00
9141;BME280;46330;50.822;7.126;2024-01-07T01:19:01;100855.31;;;2.32;100.00
9141;BME280;46330;50.822;7.126;2024-01-07T01:21:29;100844.94;;;2.29;100.00
9141;BME280;46330;50.822;7.126;2024-01-07T01:23:57;100860.38;;;2.24;100.00
9141;BME280;46330;50.822;7.126;2024-01-07T01:26:25;100859.44;;;2.21;100.00
9141;BME280;46330;50.822;7.126;2024-01-07T01:28:53;100862.03;;;2.22;100.00
9141;BME280;46330;50.822;7.126;2024-01-07T01:31:21;100862.06;;;2.25;100.00
9141;BME280;46330;50.822;7.126;2024-01-07T01:33:50;100864.59;;;2.22;100.00
9141;BME280;46330;50.822;7.126;2024-01-07T01:36:19;100860.41;;;2.27;100.00
9141;BME280;46330;50.822;7.126;2024-01-07T01:38:46;100863.00;;;2.27;100.00
9141;BME280;46330;50.822;7.126;2024-01-07T01:41:15;100872.41;;;2.25;100.00
9141;BME280;46330;50.822;7.126;2024-01-07T01:43:43;100873.28;;;2.26;100.00
9141;BME280;46330;50.822;7.126;2024-01-07T01:46:11;100871.53;;;2.25;100.00
9141;BME280;46330;50.822;7.126;2024-01-07T01:48:40;100877.72;;;2.33;100.00
9141;BME280;46330;50.822;7.126;2024-01-07T01:51:10;100871.53;;;2.25;100.00
9141;BME280;46330;50.822;7.126;2024-01-07T01:53:39;100875.03;;;2.27;100.00
9141;BME280;46330;50.822;7.126;2024-01-07T01:56:07;100874.88;;;2.17;100.00
9141;BME280;46330;50.822;7.126;2024-01-07T01:58:36;100881.00;;;2.24;100.00
9141;BME280;46330;50.822;7.126;2024-01-07T02:01:04;100882.72;;;2.25;100.00
9141;BME280;46330;50.822;7.126;2024-01-07T02:03:33;100875.03;;;2.27;100.00
9141;BME280;46330;50.822;7.126;2024-01-07T02:06:02;100878.38;;;2.23;100.00
9141;BME280;46330;50.822;7.126;2024-01-07T02:08:31;100890.53;;;2.28;100.00
9141;BME280;46330;50.822;7.126;2024-01-07T02:11:14;100888.81;;;2.29;100.00
9141;BME280;46330;50.822;7.126;2024-01-07T02:13:42;100887.94;;;2.28;100.00
9141;BME280;46330;50.822;7.126;2024-01-07T02:16:10;100889.69;;;2.29;100.00
9141;BME280;46330;50.822;7.126;2024-01-07T02:18:40;100896.53;;;2.27;100.00
9141;BME280;46330;50.822;7.126;2024-01-07T02:21:09;100901.75;;;2.30;100.00
9141;BME280;46330;50.822;7.126;2024-01-07T02:23:39;100899.19;;;2.30;100.00
9141;BME280;46330;50.822;7.126;2024-01-07T02:26:08;100903.47;;;2.30;100.00
9141;BME280;46330;50.822;7.126;2024-01-07T02:28:36;100901.75;;;2.30;100.00
9141;BME280;46330;50.822;7.126;2024-01-07T02:31:04;100901.81;;;2.35;100.00
9141;BME280;46330;50.822;7.126;2024-01-07T02:33:32;100897.47;;;2.32;100.00
9141;BME280;46330;50.822;7.126;2024-01-07T02:36:00;100895.69;;;2.28;100.00
9141;BME280;46330;50.822;7.126;2024-01-07T02:38:28;100889.63;;;2.26;100.00
9141;BME280;46330;50.822;7.126;2024-01-07T02:40:56;100895.66;;;2.27;100.00
9141;BME280;46330;50.822;7.126;2024-01-07T02:43:26;100895.72;;;2.30;100.00
9141;BME280;46330;50.822;7.126;2024-01-07T02:45:53;100901.78;;;2.32;100.00
9141;BME280;46330;50.822;7.126;2024-01-07T02:48:21;100891.44;;;2.30;100.00
9141;BME280;46330;50.822;7.126;2024-01-07T02:50:49;100907.81;;;2.32;100.00
9141;BME280;46330;50.822;7.126;2024-01-07T02:53:17;100906.06;;;2.31;100.00
9141;BME280;46330;50.822;7.126;2024-01-07T02:55:45;100912.91;;;2.31;100.00
9141;BME280;46330;50.822;7.126;2024-01-07T02:58:13;100906.00;;;2.27;100.00
9141;BME280;46330;50.822;7.126;2024-01-07T03:00:42;100910.28;;;2.26;100.00
9141;BME280;46330;50.822;7.126;2024-01-07T03:03:10;100912.91;;;2.29;100.00
9141;BME280;46330;50.822;7.126;2024-01-07T03:05:38;100913.75;;;2.28;100.00
9141;BME280;46330;50.822;7.126;2024-01-07T03:08:06;100917.19;;;2.29;100.00
9141;BME280;46330;50.822;7.126;2024-01-07T03:10:35;100911.03;;;2.21;100.00
9141;BME280;46330;50.822;7.126;2024-01-07T03:13:03;100917.13;;;2.24;100.00
9141;BME280;46330;50.822;7.126;2024-01-07T03:15:32;100924.00;;;2.24;100.00
9141;BME280;46330;50.822;7.126;2024-01-07T03:18:01;100917.91;;;2.22;100.00
9141;BME280;46330;50.822;7.126;2024-01-07T03:20:29;100917.03;;;2.20;100.00
9141;BME280;46330;50.822;7.126;2024-01-07T03:22:57;100924.66;;;2.15;100.00
9141;BME280;46330;50.822;7.126;2024-01-07T03:25:27;100920.44;;;2.17;100.00
9141;BME280;46330;50.822;7.126;2024-01-07T03:27:55;100926.53;;;2.22;100.00
9141;BME280;46330;50.822;7.126;2024-01-07T03:30:23;100930.81;;;2.20;100.00
9141;BME280;46330;50.822;7.126;2024-01-07T03:32:51;100931.69;;;2.21;100.00
9141;BME280;46330;50.822;7.126;2024-01-07T03:35:20;100924.78;;;2.20;100.00
9141;BME280;46330;50.822;7.126;2024-01-07T03:37:50;100926.41;;;2.16;100.00
9141;BME280;46330;50.822;7.126;2024-01-07T03:40:18;100936.75;;;2.16;100.00
9141;BME280;46330;50.822;7.126;2024-01-07T03:42:46;100922.19;;;2.21;100.00
9141;BME280;46330;50.822;7.126;2024-01-07T03:45:14;100932.41;;;2.15;100.00
9141;BME280;46330;50.822;7.126;2024-01-07T03:47:42;100926.34;;;2.13;100.00
9141;BME280;46330;50.822;7.126;2024-01-07T03:50:10;100930.75;;;2.17;100.00
9141;BME280;46330;50.822;7.126;2024-01-07T03:52:39;100936.75;;;2.16;100.00
9141;BME280;46330;50.822;7.126;2024-01-07T03:55:08;100936.69;;;2.13;100.00
9141;BME280;46330;50.822;7.126;2024-01-07T03:57:36;100938.50;;;2.18;100.00
9141;BME280;46330;50.822;7.126;2024-01-07T04:00:05;100939.31;;;2.16;100.00
9141;BME280;46330;50.822;7.126;2024-01-07T04:02:33;100938.56;;;2.22;100.00
9141;BME280;46330;50.822;7.126;2024-01-07T04:05:01;100947.16;;;2.21;100.00
9141;BME280;46330;50.822;7.126;2024-01-07T04:07:28;100937.50;;;2.12;100.00
9141;BME280;46330;50.822;7.126;2024-01-07T04:09:58;100948.81;;;2.17;100.00
9141;BME280;46330;50.822;7.126;2024-01-07T04:12:26;100943.47;;;2.09;100.00
9141;BME280;46330;50.822;7.126;2024-01-07T04:14:54;100950.41;;;2.10;100.00
9141;BME280;46330;50.822;7.126;2024-01-07T04:17:23;100955.50;;;2.09;100.00
9141;BME280;46330;50.822;7.126;2024-01-07T04:19:52;100956.50;;;2.14;100.00
9141;BME280;46330;50.822;7.126;2024-01-07T04:22:20;100954.78;;;2.14;100.00
9141;BME280;46330;50.822;7.126;2024-01-07T04:24:48;100952.09;;;2.08;100.00
9141;BME280;46330;50.822;7.126;2024-01-07T04:27:17;100948.59;;;2.06;100.00
9141;BME280;46330;50.822;7.126;2024-01-07T04:29:45;100958.00;;;2.04;100.00
9141;BME280;46330;50.822;7.126;2024-01-07T04:32:13;100964.88;;;2.04;100.00
9141;BME280;46330;50.822;7.126;2024-01-07T04:34:41;100964.94;;;2.05;100.00
9141;BME280;46330;50.822;7.126;2024-01-07T04:37:09;100970.00;;;2.02;100.00
9141;BME280;46330;50.822;7.126;2024-01-07T04:39:37;100960.66;;;2.07;100.00
9141;BME280;46330;50.822;7.126;2024-01-07T04:42:05;100971.81;;;2.06;100.00
9141;BME280;46330;50.822;7.126;2024-01-07T04:44:39;100980.34;;;2.04;100.00
9141;BME280;46330;50.822;7.126;2024-01-07T04:47:23;100985.38;;;1.98;100.00
9141;BME280;46330;50.822;7.126;2024-01-07T04:49:51;100977.66;;;1.98;100.00
9141;BME280;46330;50.822;7.126;2024-01-07T04:52:19;100982.03;;;2.02;100.00
9141;BME280;46330;50.822;7.126;2024-01-07T04:54:47;100982.88;;;2.02;100.00
9141;BME280;46330;50.822;7.126;2024-01-07T04:57:15;100991.41;;;1.98;100.00
9141;BME280;46330;50.822;7.126;2024-01-07T04:59:45;100991.34;;;1.95;100.00
9141;BME280;46330;50.822;7.126;2024-01-07T05:02:13;100997.41;;;1.96;100.00
9141;BME280;46330;50.822;7.126;2024-01-07T05:04:41;100990.47;;;1.95;100.00
9141;BME280;46330;50.822;7.126;2024-01-07T05:07:09;100996.53;;;1.97;100.00
9141;BME280;46330;50.822;7.126;2024-01-07T05:09:37;100995.72;;;1.99;100.00
9141;BME280;46330;50.822;7.126;2024-01-07T05:12:06;100995.72;;;1.99;100.00
9141;BME280;46330;50.822;7.126;2024-01-07T05:14:34;101001.75;;;1.98;100.00
9141;BME280;46330;50.822;7.126;2024-01-07T05:17:03;101011.19;;;1.98;100.00
9141;BME280;46330;50.822;7.126;2024-01-07T05:19:31;101009.22;;;1.88;100.00
9141;BME280;46330;50.822;7.126;2024-01-07T05:22:00;101005.75;;;1.86;100.00
9141;BME280;46330;50.822;7.126;2024-01-07T05:24:28;101011.81;;;1.88;100.00
9141;BME280;46330;50.822;7.126;2024-01-07T05:26:59;101021.22;;;1.86;100.00
9141;BME280;46330;50.822;7.126;2024-01-07T05:29:27;101012.63;;;1.85;100.00
9141;BME280;46330;50.822;7.126;2024-01-07T05:31:55;101019.41;;;1.82;100.00
9141;BME280;46330;50.822;7.126;2024-01-07T05:34:26;101019.34;;;1.77;100.00
9141;BME280;46330;50.822;7.126;2024-01-07T05:36:54;101029.72;;;1.80;100.00
9141;BME280;46330;50.822;7.126;2024-01-07T05:39:22;101032.38;;;1.85;100.00
9141;BME280;46330;50.822;7.126;2024-01-07T05:41:50;101033.25;;;1.85;100.00
9141;BME280;46330;50.822;7.126;2024-01-07T05:44:18;101041.81;;;1.83;100.00
9141;BME280;46330;50.822;7.126;2024-01-07T05:46:46;101031.41;;;1.80;100.00
9141;BME280;46330;50.822;7.126;2024-01-07T05:49:14;101046.00;;;1.79;100.00
9141;BME280;46330;50.822;7.126;2024-01-07T05:51:43;101042.63;;;1.82;100.00
9141;BME280;46330;50.822;7.126;2024-01-07T05:54:11;101047.78;;;1.82;100.00
9141;BME280;46330;50.822;7.126;2024-01-07T05:56:39;101049.47;;;1.80;100.00
9141;BME280;46330;50.822;7.126;2024-01-07T05:59:07;101046.97;;;1.83;100.00
9141;BME280;46330;50.822;7.126;2024-01-07T06:01:35;101049.56;;;1.84;100.00
9141;BME280;46330;50.822;7.126;2024-01-07T06:04:03;101046.16;;;1.85;100.00
9141;BME280;46330;50.822;7.126;2024-01-07T06:06:31;101049.41;;;1.78;100.00
9141;BME280;46330;50.822;7.126;2024-01-07T06:09:02;101057.34;;;1.86;100.00
9141;BME280;46330;50.822;7.126;2024-01-07T06:11:31;101061.66;;;1.87;100.00
9141;BME280;46330;50.822;7.126;2024-01-07T06:13:58;101054.78;;;1.87;100.00
9141;BME280;46330;50.822;7.126;2024-01-07T06:16:26;101064.97;;;1.81;100.00
9141;BME280;46330;50.822;7.126;2024-01-07T06:18:54;101066.66;;;1.81;100.00
9141;BME280;46330;50.822;7.126;2024-01-07T06:21:22;101072.81;;;1.86;100.00
9141;BME280;46330;50.822;7.126;2024-01-07T06:23:50;101074.38;;;1.79;100.00
9141;BME280;46330;50.822;7.126;2024-01-07T06:26:19;101075.19;;;1.78;100.00
9141;BME280;46330;50.822;7.126;2024-01-07T06:28:47;101087.22;;;1.78;100.00
9141;BME280;46330;50.822;7.126;2024-01-07T06:31:16;101085.63;;;1.83;100.00
9141;BME280;46330;50.822;7.126;2024-01-07T06:33:44;101088.22;;;1.83;100.00
9141;BME280;46330;50.822;7.126;2024-01-07T06:36:12;101101.78;;;1.76;100.00
9141;BME280;46330;50.822;7.126;2024-01-07T06:38:41;101092.44;;;1.79;100.00
9141;BME280;46330;50.822;7.126;2024-01-07T06:41:09;101094.25;;;1.83;100.00
9141;BME280;46330;50.822;7.126;2024-01-07T06:43:38;101106.94;;;1.74;100.00
9141;BME280;46330;50.822;7.126;2024-01-07T06:46:06;101105.97;;;1.71;100.00
9141;BME280;46330;50.822;7.126;2024-01-07T06:48:34;101107.75;;;1.73;100.00
9141;BME280;46330;50.822;7.126;2024-01-07T06:51:03;101117.34;;;1.79;100.00
9141;BME280;46330;50.822;7.126;2024-01-07T06:53:31;101125.81;;;1.75;100.00
9141;BME280;46330;50.822;7.126;2024-01-07T06:55:59;101131.84;;;1.74;100.00
9141;BME280;46330;50.822;7.126;2024-01-07T06:58:26;101119.69;;;1.68;100.00
9141;BME280;46330;50.822;7.126;2024-01-07T07:00:56;101134.16;;;1.63;100.00
9141;BME280;46330;50.822;7.126;2024-01-07T07:03:24;101136.69;;;1.61;100.00
9141;BME280;46330;50.822;7.126;2024-01-07T07:05:52;101140.13;;;1.62;100.00
9141;BME280;46330;50.822;7.126;2024-01-07T07:08:20;101135.81;;;1.61;100.00
9141;BME280;46330;50.822;7.126;2024-01-07T07:10:48;101136.78;;;1.65;100.00
9141;BME280;46330;50.822;7.126;2024-01-07T07:13:16;101145.25;;;1.60;100.00
9141;BME280;46330;50.822;7.126;2024-01-07T07:15:44;101148.63;;;1.58;100.00
9141;BME280;46330;50.822;7.126;2024-01-07T07:18:13;101153.00;;;1.60;100.00
9141;BME280;46330;50.822;7.126;2024-01-07T07:20:42;101158.09;;;1.59;100.00
9141;BME280;46330;50.822;7.126;2024-01-07T07:23:09;101158.97;;;1.59;100.00
9141;BME280;46330;50.822;7.126;2024-01-07T07:25:37;101166.53;;;1.53;100.00
9141;BME280;46330;50.822;7.126;2024-01-07T07:28:05;101168.38;;;1.57;100.00
9141;BME280;46330;50.822;7.126;2024-01-07T07:30:33;101161.63;;;1.62;100.00
9141;BME280;46330;50.822;7.126;2024-01-07T07:33:01;101159.78;;;1.57;100.00
9141;BME280;46330;50.822;7.126;2024-01-07T07:35:31;101173.56;;;1.59;100.00
9141;BME280;46330;50.822;7.126;2024-01-07T07:37:59;101183.03;;;1.60;100.00
9141;BME280;46330;50.822;7.126;2024-01-07T07:40:27;101189.09;;;1.62;100.00
9141;BME280;46330;50.822;7.126;2024-01-07T07:42:55;101190.84;;;1.61;100.00
9141;BME280;46330;50.822;7.126;2024-01-07T07:45:23;101197.78;;;1.64;100.00
9141;BME280;46330;50.822;7.126;2024-01-07T07:47:51;101200.22;;;1.59;100.00
9141;BME280;46330;50.822;7.126;2024-01-07T07:50:19;101196.97;;;1.67;100.00
9141;BME280;46330;50.822;7.126;2024-01-07T07:52:50;101203.81;;;1.65;100.00
9141;BME280;46330;50.822;7.126;2024-01-07T07:55:18;101203.81;;;1.65;100.00
9141;BME280;46330;50.822;7.126;2024-01-07T07:57:46;101210.72;;;1.67;100.00
9141;BME280;46330;50.822;7.126;2024-01-07T08:00:15;101209.84;;;1.67;100.00
9141;BME280;46330;50.822;7.126;2024-01-07T08:02:43;101207.34;;;1.68;100.00
9141;BME280;46330;50.822;7.126;2024-01-07T08:05:11;101211.47;;;1.63;100.00
9141;BME280;46330;50.822;7.126;2024-01-07T08:07:39;101214.13;;;1.65;100.00
9141;BME280;46330;50.822;7.126;2024-01-07T08:10:09;101212.31;;;1.62;100.00
9141;BME280;46330;50.822;7.126;2024-01-07T08:12:37;101222.03;;;1.72;100.00
9141;BME280;46330;50.822;7.126;2024-01-07T08:15:06;101223.72;;;1.72;100.00
9141;BME280;46330;50.822;7.126;2024-01-07T08:17:34;101222.09;;;1.74;100.00
9141;BME280;46330;50.822;7.126;2024-01-07T08:20:03;101236.78;;;1.78;100.00
9141;BME280;46330;50.822;7.126;2024-01-07T08:22:32;101236.59;;;1.70;100.00
9141;BME280;46330;50.822;7.126;2024-01-07T08:25:00;101237.56;;;1.74;100.00
9141;BME280;46330;50.822;7.126;2024-01-07T08:27:29;101241.78;;;1.72;100.00
9141;BME280;46330;50.822;7.126;2024-01-07T08:29:59;101235.88;;;1.76;100.00
9141;BME280;46330;50.822;7.126;2024-01-07T08:32:28;101247.97;;;1.78;100.00
9141;BME280;46330;50.822;7.126;2024-01-07T08:34:56;101249.56;;;1.73;100.00
9141;BME280;46330;50.822;7.126;2024-01-07T08:37:24;101259.97;;;1.76;100.00
9141;BME280;46330;50.822;7.126;2024-01-07T08:39:52;101253.84;;;1.73;100.00
9141;BME280;46330;50.822;7.126;2024-01-07T08:42:20;101250.47;;;1.75;100.00
9141;BME280;46330;50.822;7.126;2024-01-07T08:44:52;101257.31;;;1.73;100.00
9141;BME280;46330;50.822;7.126;2024-01-07T08:47:20;101262.47;;;1.75;100.00
9141;BME280;46330;50.822;7.126;2024-01-07T08:49:48;101259.81;;;1.72;100.00
9141;BME280;46330;50.822;7.126;2024-01-07T08:52:16;101266.09;;;1.81;100.00
9141;BME280;46330;50.822;7.126;2024-01-07T08:54:44;101269.44;;;1.77;100.00
9141;BME280;46330;50.822;7.126;2024-01-07T08:57:11;101268.69;;;1.81;100.00
9141;BME280;46330;50.822;7.126;2024-01-07T08:59:39;101271.09;;;1.75;100.00
9141;BME280;46330;50.822;7.126;2024-01-07T09:02:09;101261.63;;;1.74;100.00
9141;BME280;46330;50.822;7.126;2024-01-07T09:04:37;101274.72;;;1.82;100.00
9141;BME280;46330;50.822;7.126;2024-01-07T09:07:06;101270.50;;;1.85;100.00
9141;BME280;46330;50.822;7.126;2024-01-07T09:09:34;101281.47;;;1.77;100.00
9141;BME280;46330;50.822;7.126;2024-01-07T09:12:03;101286.69;;;1.80;100.00
9141;BME280;46330;50.822;7.126;2024-01-07T09:14:31;101284.06;;;1.78;100.00
9141;BME280;46330;50.822;7.126;2024-01-07T09:16:59;101288.25;;;1.73;100.00
9141;BME280;46330;50.822;7.126;2024-01-07T09:19:29;101295.09;;;1.73;100.00
9141;BME280;46330;50.822;7.126;2024-01-07T09:21:57;101306.22;;;1.72;100.00
9141;BME280;46330;50.822;7.126;2024-01-07T09:24:25;101305.31;;;1.70;100.00
9141;BME280;46330;50.822;7.126;2024-01-07T09:26:53;101313.16;;;1.73;100.00
9141;BME280;46330;50.822;7.126;2024-01-07T09:29:21;101314.81;;;1.71;100.00
9141;BME280;46330;50.822;7.126;2024-01-07T09:31:49;101311.13;;;1.62;100.00
9141;BME280;46330;50.822;7.126;2024-01-07T09:34:17;101306.66;;;1.55;100.00
9141;BME280;46330;50.822;7.126;2024-01-07T09:36:46;101317.81;;;1.56;100.00
9141;BME280;46330;50.822;7.126;2024-01-07T09:39:16;101318.78;;;1.59;100.00
9141;BME280;46330;50.822;7.126;2024-01-07T09:41:44;101318.97;;;1.66;100.00
9141;BME280;46330;50.822;7.126;2024-01-07T09:44:12;101327.53;;;1.65;100.00
9141;BME280;46330;50.822;7.126;2024-01-07T09:46:41;101317.41;;;1.71;100.00
9141;BME280;46330;50.822;7.126;2024-01-07T09:49:10;101322.56;;;1.71;100.00
9141;BME280;46330;50.822;7.126;2024-01-07T09:51:39;101321.44;;;1.61;100.00
9141;BME280;46330;50.822;7.126;2024-01-07T09:54:11;101327.63;;;1.68;100.00
9141;BME280;46330;50.822;7.126;2024-01-07T09:56:48;101328.44;;;1.67;100.00
9141;BME280;46330;50.822;7.126;2024-01-07T09:59:18;101337.22;;;1.73;100.00
9141;BME280;46330;50.822;7.126;2024-01-07T10:01:46;101332.94;;;1.74;100.00
9141;BME280;46330;50.822;7.126;2024-01-07T10:04:16;101336.25;;;1.68;100.00
9141;BME280;46330;50.822;7.126;2024-01-07T10:06:44;101330.84;;;1.60;100.00
9141;BME280;46330;50.822;7.126;2024-01-07T10:09:14;101329.19;;;1.62;100.00
9141;BME280;46330;50.822;7.126;2024-01-07T10:11:43;101336.84;;;1.59;100.00
9141;BME280;46330;50.822;7.126;2024-01-07T10:14:11;101329.25;;;1.64;100.00
9141;BME280;46330;50.822;7.126;2024-01-07T10:16:39;101330.38;;;1.74;100.00
9141;BME280;46330;50.822;7.126;2024-01-07T10:19:07;101337.97;;;1.69;100.00
9141;BME280;46330;50.822;7.126;2024-01-07T10:21:35;101337.78;;;1.61;100.00
9141;BME280;46330;50.822;7.126;2024-01-07T10:24:07;101343.44;;;1.50;100.00
9141;BME280;46330;50.822;7.126;2024-01-07T10:26:38;101345.28;;;1.54;100.00
9141;BME280;46330;50.822;7.126;2024-01-07T10:29:07;101337.44;;;1.49;100.00
9141;BME280;46330;50.822;7.126;2024-01-07T10:31:38;101336.47;;;1.46;100.00
9141;BME280;46330;50.822;7.126;2024-01-07T10:34:07;101356.66;;;1.92;100.00
9141;BME280;46330;50.822;7.126;2024-01-07T10:36:36;101356.34;;;1.81;100.00
9141;BME280;46330;50.822;7.126;2024-01-07T10:39:05;101343.56;;;1.54;100.00
9141;BME280;46330;50.822;7.126;2024-01-07T10:41:38;101351.06;;;1.47;100.00
9141;BME280;46330;50.822;7.126;2024-01-07T10:44:07;101357.81;;;1.42;100.00
9141;BME280;46330;50.822;7.126;2024-01-07T10:46:35;101344.75;;;1.36;100.00
9141;BME280;46330;50.822;7.126;2024-01-07T10:49:04;101359.50;;;1.41;100.00
9141;BME280;46330;50.822;7.126;2024-01-07T10:51:35;101355.75;;;1.30;100.00
9141;BME280;46330;50.822;7.126;2024-01-07T10:54:04;101361.97;;;1.37;100.00
9141;BME280;46330;50.822;7.126;2024-01-07T10:56:41;101367.97;;;1.37;100.00
9141;BME280;46330;50.822;7.126;2024-01-07T10:59:13;101355.25;;;1.42;100.00
9141;BME280;46330;50.822;7.126;2024-01-07T11:01:41;101372.50;;;1.44;100.00
9141;BME280;46330;50.822;7.126;2024-01-07T11:04:14;101374.44;;;1.53;100.00
9141;BME280;46330;50.822;7.126;2024-01-07T11:06:52;101375.66;;;1.64;100.00
9141;BME280;46330;50.822;7.126;2024-01-07T11:09:28;101377.59;;;1.73;100.00
9141;BME280;46330;50.822;7.126;2024-01-07T11:12:02;101373.44;;;1.78;100.00
9141;BME280;46330;50.822;7.126;2024-01-07T11:14:34;101374.16;;;1.72;100.00
9141;BME280;46330;50.822;7.126;2024-01-07T11:17:03;101376.81;;;1.75;100.00
9141;BME280;46330;50.822;7.126;2024-01-07T11:19:31;101369.06;;;1.75;100.00
9141;BME280;46330;50.822;7.126;2024-01-07T11:22:24;101382.75;;;1.73;100.00
9141;BME280;46330;50.822;7.126;2024-01-07T11:24:55;101377.59;;;1.71;100.00
9141;BME280;46330;50.822;7.126;2024-01-07T11:27:26;101378.44;;;1.72;100.00
9141;BME280;46330;50.822;7.126;2024-01-07T11:30:02;101384.78;;;1.83;100.00
9141;BME280;46330;50.822;7.126;2024-01-07T11:32:33;101377.75;;;1.77;100.00
9141;BME280;46330;50.822;7.126;2024-01-07T11:35:01;101386.16;;;1.72;100.00
9141;BME280;46330;50.822;7.126;2024-01-07T11:37:31;101380.06;;;1.68;100.00
9141;BME280;46330;50.822;7.126;2024-01-07T11:39:59;101381.34;;;1.84;100.00
9141;BME280;46330;50.822;7.126;2024-01-07T11:42:28;101375.44;;;1.86;100.00
9141;BME280;46330;50.822;7.126;2024-01-07T11:44:56;101382.19;;;1.83;100.00
9141;BME280;46330;50.822;7.126;2024-01-07T11:47:25;101379.81;;;1.90;100.00
9141;BME280;46330;50.822;7.126;2024-01-07T11:49:54;101387.34;;;1.83;100.00
9141;BME280;46330;50.822;7.126;2024-01-07T11:52:22;101377.84;;;1.80;100.00
9141;BME280;46330;50.822;7.126;2024-01-07T11:54:51;101380.41;;;1.80;100.00
9141;BME280;46330;50.822;7.126;2024-01-07T11:57:19;101383.75;;;1.78;100.00
9141;BME280;46330;50.822;7.126;2024-01-07T11:59:48;101378.75;;;1.82;100.00
9141;BME280;46330;50.822;7.126;2024-01-07T12:02:16;101381.78;;;1.68;100.00
9141;BME280;46330;50.822;7.126;2024-01-07T12:04:44;101384.22;;;1.63;100.00
9141;BME280;46330;50.822;7.126;2024-01-07T12:07:12;101390.66;;;1.79;100.00
9141;BME280;46330;50.822;7.126;2024-01-07T12:09:41;101383.81;;;1.79;100.00
9141;BME280;46330;50.822;7.126;2024-01-07T12:12:09;101389.00;;;1.81;100.00
9141;BME280;46330;50.822;7.126;2024-01-07T12:14:37;101381.88;;;1.72;100.00
9141;BME280;46330;50.822;7.126;2024-01-07T12:17:08;101385.97;;;1.64;100.00
9141;BME280;46330;50.822;7.126;2024-01-07T12:19:40;101392.34;;;1.77;100.00
9141;BME280;46330;50.822;7.126;2024-01-07T12:22:08;101392.50;;;1.83;100.00
9141;BME280;46330;50.822;7.126;2024-01-07T12:24:36;101391.47;;;1.76;100.00
9141;BME280;46330;50.822;7.126;2024-01-07T12:27:04;101393.06;;;1.71;100.00
9141;BME280;46330;50.822;7.126;2024-01-07T12:29:32;101393.63;;;1.62;100.00
9141;BME280;46330;50.822;7.126;2024-01-07T12:32:01;101402.75;;;1.80;100.00
9141;BME280;46330;50.822;7.126;2024-01-07T12:34:31;101403.53;;;1.77;100.00
9141;BME280;46330;50.822;7.126;2024-01-07T12:37:00;101408.13;;;1.59;100.00
9141;BME280;46330;50.822;7.126;2024-01-07T12:39:29;101406.16;;;1.49;100.00
9141;BME280;46330;50.822;7.126;2024-01-07T12:41:57;101409.38;;;1.42;100.00
9141;BME280;46330;50.822;7.126;2024-01-07T12:44:27;101407.13;;;1.52;100.00
9141;BME280;46330;50.822;7.126;2024-01-07T12:46:56;101408.56;;;1.44;100.00
9141;BME280;46330;50.822;7.126;2024-01-07T12:49:24;101411.38;;;1.52;100.00
9141;BME280;46330;50.822;7.126;2024-01-07T12:51:53;101405.00;;;1.69;100.00
9141;BME280;46330;50.822;7.126;2024-01-07T12:54:21;101407.66;;;1.71;100.00
9141;BME280;46330;50.822;7.126;2024-01-07T12:56:51;101412.03;;;1.75;100.00
9141;BME280;46330;50.822;7.126;2024-01-07T12:59:19;101404.28;;;1.75;100.00
9141;BME280;46330;50.822;7.126;2024-01-07T13:01:47;101402.56;;;1.74;100.00
9141;BME280;46330;50.822;7.126;2024-01-07T13:04:18;101422.75;;;1.88;100.00
9141;BME280;46330;50.822;7.126;2024-01-07T13:06:47;101426.66;;;1.74;100.00
9141;BME280;46330;50.822;7.126;2024-01-07T13:09:16;101429.78;;;1.64;99.79